Terminal Aerodrome Forecast
Issued by NWS Tulsa, OK

Home | Current Version | Previous Version | Text Only | Print | Product List | Glossary Off
Versions: 1 2 3 4 5 6 7 8 9 10 11 12 13 14 15 16

031
FTUS44 KTSA 012326
TAFTUL
TAF
KTUL 012326Z 0200/0224 30007KT P6SM VCSH SCT040 BKN080
     FM020300 13004KT P6SM FEW050 BKN100
     FM021400 18009KT P6SM BKN250
     FM021800 19012KT P6SM SCT060 SCT250=

USA.gov is the U.S. government's official web portal to all federal, state and local government web resources and services.